CYLW/YLW METAR and TAF weather

Enter ICAO airport designator
Station Type Date Time Source
CYLW METAR 2021/09/20 06:00 UTC NOAA

CYLW 200600Z AUTO 07003KT 9SM OVC066 10/08 A3008 RMK SLP193


Station Type Date Time Source
CYLW Decoded METAR 2021/09/20 06:00 UTC NOAA

Kelowna Airport, Canada (CYLW) 49-58N 119-23W 430M
Sep 20, 2021 - 02:00 AM EDT / 2021.09.20 0600 UTC
Wind: from the ENE (070 degrees) at 3 MPH (3 KT):0
Visibility: 9 mile(s):0
Sky conditions: overcast
Temperature: 50 F (10 C)
Dew Point: 46 F (8 C)
Relative Humidity: 87%
Pressure (altimeter): 30.08 in. Hg (1018 hPa)
ob: CYLW 200600Z AUTO 07003KT 9SM OVC066 10/08 A3008 RMK SLP193
cycle: 6

Station Type Date Time Source
CYLW TAF 2021/09/20 02:18 UTC NOAA

TAF
AMD TAF
AMD CYLW 200216Z 2002/2013 34015KT P6SM BKN060
TEMPO 2002/2005 4SM -SHRA BR BKN040
FM200500 18006KT P6SM BKN060
RMK FCST BASED ON AUTO OBS. NXT FCST BY 200700Z

Example: see airport list